Time;durP1;ratioP1;P1;durP2;ratioP2;P2;SDS_P1;SDS_P2;PMS_P1;PMS_P2;Temp;Humidity;BMP_temperature;BMP_pressure;BME280_temperature;BME280_humidity;BME280_pressure;Samples;Min_cycle;Max_cycle;Signal;HPM_P1;HPM_P2
2021/09/07 00:01:26;;;;;;;14.88;6.60;;;17.50;99.90;;;;;;5002209;28;20030;-70
2021/09/07 00:03:51;;;;;;;12.55;6.20;;;17.40;99.90;;;;;;5002866;28;20041;-70
2021/09/07 00:06:17;;;;;;;14.15;6.82;;;17.40;99.90;;;;;;5004519;28;20114;-70
2021/09/07 00:08:44;;;;;;;14.27;6.85;;;17.30;99.90;;;;;;5006563;28;20107;-70
2021/09/07 00:11:10;;;;;;;14.18;6.10;;;17.30;99.90;;;;;;5007976;28;20040;-70
2021/09/07 00:13:36;;;;;;;14.35;6.05;;;17.30;99.90;;;;;;5006139;28;20529;-70
2021/09/07 00:16:02;;;;;;;14.07;5.97;;;17.20;99.90;;;;;;5001045;28;20038;-70
2021/09/07 00:18:28;;;;;;;11.32;6.22;;;17.20;99.90;;;;;;5004787;28;20065;-70
2021/09/07 00:20:54;;;;;;;14.93;6.40;;;17.10;99.90;;;;;;4984145;28;20080;-70
2021/09/07 00:23:20;;;;;;;13.18;6.32;;;17.10;99.90;;;;;;5000084;28;20022;-70
2021/09/07 00:25:45;;;;;;;20.27;6.38;;;17.10;99.90;;;;;;4986502;28;20406;-70
2021/09/07 00:28:11;;;;;;;15.73;7.13;;;17.00;99.90;;;;;;5003733;28;20041;-70
2021/09/07 00:30:37;;;;;;;14.15;6.82;;;17.10;99.90;;;;;;5000045;28;20172;-70
2021/09/07 00:33:04;;;;;;;12.02;6.03;;;17.10;99.90;;;;;;5002070;28;20038;-69
2021/09/07 00:35:29;;;;;;;13.60;6.63;;;17.10;99.90;;;;;;4983691;28;20109;-70
2021/09/07 00:37:55;;;;;;;15.77;6.32;;;17.00;99.90;;;;;;5000537;28;20117;-70
2021/09/07 00:40:20;;;;;;;18.55;6.97;;;17.00;99.90;;;;;;5003699;28;20037;-70
2021/09/07 00:42:46;;;;;;;17.77;6.95;;;17.00;99.90;;;;;;5002904;28;20406;-70
2021/09/07 00:45:12;;;;;;;16.35;7.00;;;16.90;99.90;;;;;;4985350;28;20046;-70
2021/09/07 00:47:39;;;;;;;13.82;6.35;;;16.90;99.90;;;;;;4999471;28;20038;-70
2021/09/07 00:50:08;;;;;;;28.52;7.70;;;16.90;99.90;;;;;;5002543;28;20033;-69
2021/09/07 00:52:35;;;;;;;14.95;6.50;;;16.80;99.90;;;;;;5003036;28;20132;-70
2021/09/07 00:55:02;;;;;;;15.32;7.10;;;16.80;99.90;;;;;;5000511;28;20402;-70
2021/09/07 00:57:30;;;;;;;13.30;6.57;;;16.80;99.90;;;;;;5001661;28;20125;-70
2021/09/07 00:59:56;;;;;;;17.35;8.10;;;16.80;99.90;;;;;;5000626;28;20371;-70
2021/09/07 01:02:22;;;;;;;13.15;6.57;;;16.70;99.90;;;;;;5001154;28;20084;-70
2021/09/07 01:04:48;;;;;;;12.93;5.85;;;16.70;99.90;;;;;;5002043;28;20038;-70
2021/09/07 01:07:14;;;;;;;15.82;6.85;;;16.60;99.90;;;;;;4982653;28;20152;-69
2021/09/07 01:09:41;;;;;;;18.77;6.80;;;16.60;99.90;;;;;;4985371;28;20650;-70
2021/09/07 01:12:10;;;;;;;15.55;6.72;;;16.60;99.90;;;;;;4998928;28;20591;-70
2021/09/07 01:14:39;;;;;;;18.88;6.80;;;16.60;99.90;;;;;;4985808;28;20058;-70
2021/09/07 01:17:13;;;;;;;14.05;7.00;;;16.60;99.90;;;;;;5003505;28;20034;-70
2021/09/07 01:19:39;;;;;;;18.10;7.38;;;16.50;99.90;;;;;;5000414;28;20034;-70
2021/09/07 01:22:05;;;;;;;15.02;6.90;;;16.50;99.90;;;;;;5003002;28;20030;-70
2021/09/07 01:24:30;;;;;;;15.52;6.53;;;16.50;99.90;;;;;;4983298;28;20573;-70
2021/09/07 01:26:56;;;;;;;18.48;7.13;;;16.50;99.90;;;;;;5001465;28;20034;-70
2021/09/07 01:29:22;;;;;;;12.70;5.95;;;16.50;99.90;;;;;;5004220;28;20041;-70
2021/09/07 01:31:48;;;;;;;12.32;6.47;;;16.50;99.90;;;;;;4994552;28;20042;-70
2021/09/07 01:34:21;;;;;;;16.90;6.95;;;16.50;99.90;;;;;;5016110;28;20042;-70
2021/09/07 01:36:47;;;;;;;13.48;6.38;;;16.50;99.90;;;;;;5012035;28;20118;-70
2021/09/07 01:39:13;;;;;;;13.50;6.75;;;16.50;99.90;;;;;;4990106;28;20063;-69
2021/09/07 01:41:39;;;;;;;16.02;6.47;;;16.50;99.90;;;;;;5003961;28;20569;-70
2021/09/07 01:44:04;;;;;;;17.52;8.20;;;16.40;99.90;;;;;;4988287;28;20058;-71
2021/09/07 01:46:30;;;;;;;17.80;7.13;;;16.40;99.90;;;;;;5015520;28;20038;-70
2021/09/07 01:48:55;;;;;;;17.15;7.38;;;16.40;99.90;;;;;;4996946;28;20030;-71
2021/09/07 01:51:21;;;;;;;15.70;6.93;;;16.40;99.90;;;;;;5012178;28;20026;-70
2021/09/07 01:53:46;;;;;;;24.30;8.00;;;16.40;99.90;;;;;;5013475;28;20435;-69
2021/09/07 01:56:12;;;;;;;12.77;6.10;;;16.50;99.90;;;;;;5001847;28;20030;-70
2021/09/07 01:58:37;;;;;;;19.88;8.00;;;16.40;99.90;;;;;;4999489;28;20069;-70
2021/09/07 02:01:04;;;;;;;17.88;7.75;;;16.50;99.90;;;;;;5002063;28;20072;-70
2021/09/07 02:03:30;;;;;;;19.58;8.15;;;16.40;99.90;;;;;;4999369;28;20058;-69
2021/09/07 02:05:56;;;;;;;17.48;7.88;;;16.40;99.90;;;;;;4983477;28;20038;-70
2021/09/07 02:08:21;;;;;;;15.85;7.07;;;16.40;99.90;;;;;;5000011;28;20037;-70
2021/09/07 02:10:47;;;;;;;20.02;7.95;;;16.40;99.90;;;;;;4982892;28;20045;-69
2021/09/07 02:13:12;;;;;;;16.98;7.65;;;16.30;99.90;;;;;;4983401;28;20411;-70
2021/09/07 02:15:38;;;;;;;16.95;6.93;;;16.30;99.90;;;;;;4998771;28;20054;-70
2021/09/07 02:18:03;;;;;;;17.35;7.93;;;16.30;99.90;;;;;;4986892;28;20042;-70
2021/09/07 02:20:29;;;;;;;15.95;6.82;;;16.20;99.90;;;;;;5001617;28;20030;-70
2021/09/07 02:22:55;;;;;;;16.88;7.47;;;16.20;99.90;;;;;;4985907;28;20034;-70
2021/09/07 02:25:20;;;;;;;17.15;7.78;;;16.20;99.90;;;;;;4999369;28;20522;-69
2021/09/07 02:27:46;;;;;;;18.70;8.05;;;16.20;99.90;;;;;;4998975;28;20035;-70
2021/09/07 02:30:13;;;;;;;18.35;7.38;;;16.20;99.90;;;;;;5000055;28;20036;-70
2021/09/07 02:32:39;;;;;;;16.13;7.38;;;16.10;99.90;;;;;;4980155;28;20057;-70
2021/09/07 02:35:05;;;;;;;15.93;7.18;;;16.10;99.90;;;;;;5001598;28;20041;-70
2021/09/07 02:37:30;;;;;;;14.63;6.97;;;16.10;99.90;;;;;;4998480;28;20063;-69
2021/09/07 02:39:56;;;;;;;14.93;6.93;;;16.10;99.90;;;;;;4985652;28;20050;-70
2021/09/07 02:42:22;;;;;;;17.95;7.18;;;16.00;99.90;;;;;;4982907;28;20046;-70
2021/09/07 02:44:47;;;;;;;19.45;8.48;;;16.00;99.90;;;;;;4999874;28;20048;-69
2021/09/07 02:47:13;;;;;;;20.02;8.55;;;16.00;99.90;;;;;;4998780;28;20046;-70
2021/09/07 02:49:39;;;;;;;18.55;9.00;;;16.10;99.90;;;;;;5001672;28;20030;-70
2021/09/07 02:52:04;;;;;;;17.08;7.88;;;16.10;99.90;;;;;;4998504;28;20035;-70
2021/09/07 02:54:30;;;;;;;16.17;7.75;;;16.10;99.90;;;;;;4997979;28;20632;-70
2021/09/07 02:56:56;;;;;;;19.08;7.95;;;16.00;99.90;;;;;;4983302;28;20103;-69
2021/09/07 02:59:22;;;;;;;16.17;8.15;;;16.00;99.90;;;;;;4999126;28;20125;-69
2021/09/07 03:01:47;;;;;;;16.77;8.40;;;16.00;99.90;;;;;;4982551;28;20034;-70
2021/09/07 03:04:13;;;;;;;20.38;7.63;;;16.00;99.90;;;;;;4984761;28;20038;-70
2021/09/07 03:06:39;;;;;;;21.83;8.38;;;16.00;99.90;;;;;;4984867;28;20510;-70
2021/09/07 03:09:04;;;;;;;19.35;7.97;;;15.90;99.90;;;;;;5005389;28;20096;-70
2021/09/07 03:11:31;;;;;;;19.08;8.77;;;15.90;99.90;;;;;;4984199;28;20085;-70
2021/09/07 03:13:56;;;;;;;20.52;8.73;;;15.90;99.90;;;;;;5005122;28;20029;-70
2021/09/07 03:16:22;;;;;;;19.48;8.18;;;15.90;99.90;;;;;;5002349;28;20041;-70
2021/09/07 03:18:47;;;;;;;17.55;8.63;;;15.80;99.90;;;;;;4989934;28;20406;-70
2021/09/07 03:21:13;;;;;;;24.73;9.18;;;15.80;99.90;;;;;;5002920;28;20430;-70
2021/09/07 03:23:38;;;;;;;19.52;8.48;;;15.80;99.90;;;;;;5003814;28;20033;-70
2021/09/07 03:26:04;;;;;;;19.00;9.43;;;15.80;99.90;;;;;;4984079;28;20388;-70
2021/09/07 03:28:30;;;;;;;19.80;8.63;;;15.70;99.90;;;;;;5004485;28;20033;-70
2021/09/07 03:30:55;;;;;;;27.52;9.30;;;15.80;99.90;;;;;;5001876;28;20062;-70
2021/09/07 03:33:21;;;;;;;19.55;9.10;;;15.70;99.90;;;;;;5003357;28;20090;-70
2021/09/07 03:35:46;;;;;;;22.52;10.13;;;15.70;99.90;;;;;;4985360;28;20129;-70
2021/09/07 03:38:14;;;;;;;27.05;9.60;;;15.70;99.90;;;;;;5002671;28;20050;-70
2021/09/07 03:40:40;;;;;;;19.75;8.45;;;15.70;99.90;;;;;;5003519;28;20033;-70
2021/09/07 03:43:06;;;;;;;19.90;9.15;;;15.60;99.90;;;;;;5001391;28;20103;-70
2021/09/07 03:45:31;;;;;;;19.10;8.93;;;15.60;99.90;;;;;;5003992;28;20038;-70
2021/09/07 03:47:57;;;;;;;22.98;9.80;;;15.60;99.90;;;;;;4983600;28;20061;-70
2021/09/07 03:50:22;;;;;;;22.67;8.57;;;15.60;99.90;;;;;;4986075;28;20034;-70
2021/09/07 03:52:48;;;;;;;18.88;9.35;;;15.60;99.90;;;;;;4985116;28;20048;-70
2021/09/07 03:55:14;;;;;;;25.20;8.98;;;15.50;99.90;;;;;;4985083;28;20046;-70
2021/09/07 03:57:40;;;;;;;21.42;8.38;;;15.50;99.90;;;;;;5002250;28;20514;-70
2021/09/07 04:00:07;;;;;;;19.73;8.35;;;15.50;99.90;;;;;;4987429;28;20133;-70
2021/09/07 04:02:32;;;;;;;20.73;9.15;;;15.40;99.90;;;;;;5001284;28;20035;-70
2021/09/07 04:04:58;;;;;;;23.85;9.65;;;15.50;99.90;;;;;;5003176;28;20044;-70
2021/09/07 04:07:23;;;;;;;22.35;8.93;;;15.40;99.90;;;;;;5000665;28;20097;-70
2021/09/07 04:09:49;;;;;;;21.80;9.32;;;15.40;99.90;;;;;;5002619;28;20085;-70
2021/09/07 04:12:15;;;;;;;18.83;8.68;;;15.40;99.90;;;;;;5001991;28;20034;-70
2021/09/07 04:14:40;;;;;;;20.48;10.52;;;15.40;99.90;;;;;;4982911;28;20614;-70
2021/09/07 04:17:06;;;;;;;21.80;9.65;;;15.40;99.90;;;;;;5005603;28;20085;-70
2021/09/07 04:19:32;;;;;;;19.67;8.93;;;15.40;99.90;;;;;;5004031;28;20026;-70
2021/09/07 04:21:58;;;;;;;20.30;9.40;;;15.40;99.90;;;;;;5000451;28;20034;-70
2021/09/07 04:24:24;;;;;;;19.75;8.20;;;15.30;99.90;;;;;;4986552;28;20052;-70
2021/09/07 04:26:50;;;;;;;20.60;8.88;;;15.30;99.90;;;;;;5000663;28;20038;-70
2021/09/07 04:29:15;;;;;;;20.05;8.27;;;15.30;99.90;;;;;;5002681;28;20499;-70
2021/09/07 04:31:42;;;;;;;19.23;8.77;;;15.30;99.90;;;;;;5002432;28;20113;-70
2021/09/07 04:34:08;;;;;;;22.83;10.15;;;15.30;99.90;;;;;;4983954;28;20041;-70
2021/09/07 04:36:33;;;;;;;19.73;9.52;;;15.20;99.90;;;;;;4985325;28;20033;-70
2021/09/07 04:38:59;;;;;;;17.13;8.30;;;15.20;99.90;;;;;;4999716;28;20114;-70
2021/09/07 04:41:25;;;;;;;19.77;9.07;;;15.20;99.90;;;;;;5007867;28;20091;-70
2021/09/07 04:43:50;;;;;;;22.23;9.00;;;15.20;99.90;;;;;;5002185;28;20065;-71
2021/09/07 04:46:17;;;;;;;21.23;8.40;;;15.20;99.90;;;;;;5001117;28;20482;-70
2021/09/07 04:48:43;;;;;;;17.90;8.15;;;15.10;99.90;;;;;;5001819;28;20037;-69
2021/09/07 04:51:08;;;;;;;18.08;7.63;;;15.10;99.90;;;;;;5001962;28;20022;-70
2021/09/07 04:53:34;;;;;;;18.13;8.63;;;15.10;99.90;;;;;;4983012;28;20034;-70
2021/09/07 04:55:59;;;;;;;22.65;8.95;;;15.10;99.90;;;;;;5002385;28;20073;-70
2021/09/07 04:58:25;;;;;;;21.20;8.98;;;15.10;99.90;;;;;;4982538;28;20045;-70
2021/09/07 05:00:50;;;;;;;19.33;8.10;;;15.00;99.90;;;;;;5002619;28;20022;-70
2021/09/07 05:03:16;;;;;;;20.77;8.65;;;15.00;99.90;;;;;;5000658;28;20545;-69
2021/09/07 05:05:42;;;;;;;19.15;9.23;;;15.00;99.90;;;;;;4983758;28;20046;-70
2021/09/07 05:08:07;;;;;;;19.45;7.78;;;15.00;99.90;;;;;;5001136;28;20034;-70
2021/09/07 05:10:33;;;;;;;25.10;9.35;;;15.10;99.90;;;;;;5000703;28;20133;-70
2021/09/07 05:12:58;;;;;;;20.80;8.52;;;15.10;99.90;;;;;;5002153;28;20038;-70
2021/09/07 05:15:24;;;;;;;16.08;7.80;;;15.20;99.90;;;;;;4982286;28;20042;-70
2021/09/07 05:17:50;;;;;;;19.15;8.80;;;15.20;99.90;;;;;;4986735;28;20034;-70
2021/09/07 05:20:16;;;;;;;18.90;8.63;;;15.30;99.90;;;;;;5001643;28;20034;-70
2021/09/07 05:22:41;;;;;;;17.77;7.93;;;15.30;99.90;;;;;;5000652;28;20462;-70
2021/09/07 05:25:08;;;;;;;24.23;9.07;;;15.40;99.90;;;;;;4982870;28;20479;-70
2021/09/07 05:27:35;;;;;;;21.58;8.82;;;15.50;99.90;;;;;;4983810;28;20037;-69
2021/09/07 05:30:07;;;;;;;18.27;8.45;;;15.60;99.90;;;;;;4999921;28;20065;-70
2021/09/07 05:32:33;;;;;;;18.17;8.60;;;15.60;99.90;;;;;;5002221;28;20033;-70
2021/09/07 05:34:58;;;;;;;22.80;9.50;;;15.70;99.90;;;;;;4999108;28;20057;-70
2021/09/07 05:37:24;;;;;;;18.02;7.35;;;15.80;99.90;;;;;;4984945;28;20061;-70
2021/09/07 05:39:50;;;;;;;21.35;8.88;;;15.90;99.90;;;;;;5005537;28;20038;-70
2021/09/07 05:42:15;;;;;;;21.30;9.43;;;16.00;99.90;;;;;;4999750;28;20113;-70
2021/09/07 05:44:42;;;;;;;22.00;9.07;;;16.00;99.90;;;;;;5001638;28;20049;-70
2021/09/07 05:47:08;;;;;;;23.52;8.50;;;16.10;99.90;;;;;;5000420;28;20037;-69
2021/09/07 05:49:33;;;;;;;18.92;9.40;;;16.20;99.90;;;;;;5000727;28;20402;-70
2021/09/07 05:51:59;;;;;;;24.77;9.40;;;16.30;99.90;;;;;;4984459;28;20491;-71
2021/09/07 05:54:25;;;;;;;21.17;9.20;;;16.30;99.90;;;;;;4999333;28;20026;-70
2021/09/07 05:56:50;;;;;;;24.10;9.13;;;16.40;99.90;;;;;;4984927;28;20038;-70
2021/09/07 05:59:16;;;;;;;24.98;9.38;;;16.40;99.90;;;;;;4981591;28;20573;-71
2021/09/07 06:01:43;;;;;;;19.77;8.65;;;16.50;99.90;;;;;;4979370;28;20125;-70
2021/09/07 06:04:08;;;;;;;21.13;9.18;;;16.60;99.90;;;;;;5004739;28;20394;-70
2021/09/07 06:06:34;;;;;;;21.55;8.77;;;16.60;99.90;;;;;;5000687;28;20038;-70
2021/09/07 06:08:59;;;;;;;21.45;8.75;;;16.70;99.90;;;;;;4996746;28;20041;-70
2021/09/07 06:11:25;;;;;;;26.23;10.07;;;16.70;99.90;;;;;;5001347;28;20036;-70
2021/09/07 06:13:51;;;;;;;27.27;10.40;;;16.80;99.90;;;;;;5000622;28;20491;-70
2021/09/07 06:16:17;;;;;;;26.23;9.98;;;16.90;99.90;;;;;;4981115;28;20092;-70
2021/09/07 06:18:42;;;;;;;22.65;9.77;;;17.00;99.90;;;;;;4985889;28;20053;-70
2021/09/07 06:21:08;;;;;;;26.23;9.55;;;17.10;99.90;;;;;;4983108;28;20029;-70
2021/09/07 06:23:34;;;;;;;28.60;9.63;;;17.20;99.90;;;;;;4998731;28;20030;-70
2021/09/07 06:26:00;;;;;;;24.05;10.60;;;17.30;99.90;;;;;;4984370;28;20756;-70
2021/09/07 06:28:26;;;;;;;19.40;9.10;;;17.40;99.90;;;;;;4999550;28;20096;-70
2021/09/07 06:30:52;;;;;;;27.02;9.73;;;17.50;99.90;;;;;;5020653;28;20094;-70
2021/09/07 06:33:18;;;;;;;21.08;8.75;;;17.60;99.90;;;;;;4986592;28;20148;-69
2021/09/07 06:35:43;;;;;;;20.38;9.40;;;17.60;99.90;;;;;;5006953;28;20083;-70
2021/09/07 06:38:09;;;;;;;23.15;9.80;;;17.80;99.90;;;;;;5002702;28;20038;-71
2021/09/07 06:40:34;;;;;;;26.48;10.10;;;17.80;99.90;;;;;;5009455;28;20034;-69
2021/09/07 06:43:00;;;;;;;24.42;9.75;;;17.90;99.90;;;;;;5005261;28;20038;-70
2021/09/07 06:45:25;;;;;;;22.85;10.00;;;18.00;99.90;;;;;;4986624;28;20037;-70
2021/09/07 06:47:51;;;;;;;30.00;10.55;;;18.20;99.90;;;;;;5001809;28;20034;-69
2021/09/07 06:50:17;;;;;;;21.77;10.65;;;18.20;99.90;;;;;;4986052;28;20820;-70
2021/09/07 06:52:42;;;;;;;26.48;10.40;;;18.30;99.90;;;;;;5001027;28;20026;-69
2021/09/07 06:55:09;;;;;;;22.90;9.07;;;18.40;99.90;;;;;;5002276;28;20060;-70
2021/09/07 06:57:34;;;;;;;24.33;9.57;;;18.50;99.90;;;;;;5001325;28;20494;-70
2021/09/07 07:00:03;;;;;;;24.77;10.32;;;18.60;99.90;;;;;;5004002;28;20048;-70
2021/09/07 07:02:29;;;;;;;22.88;10.05;;;18.60;99.90;;;;;;5001285;28;20046;-70
2021/09/07 07:04:54;;;;;;;17.92;8.50;;;18.70;99.90;;;;;;4982632;28;20047;-69
2021/09/07 07:07:20;;;;;;;24.90;10.07;;;18.80;99.90;;;;;;5001288;28;20117;-70
2021/09/07 07:09:45;;;;;;;24.58;9.27;;;18.90;99.90;;;;;;4999266;28;20039;-69
2021/09/07 07:12:11;;;;;;;27.73;9.68;;;19.00;99.90;;;;;;4999922;28;20549;-70
2021/09/07 07:14:37;;;;;;;19.08;9.15;;;19.10;99.90;;;;;;5004293;28;20041;-69
2021/09/07 07:17:02;;;;;;;25.80;9.93;;;19.20;99.90;;;;;;4984743;28;20038;-69
2021/09/07 07:19:28;;;;;;;32.83;10.05;;;19.30;99.90;;;;;;4989634;28;20041;-70
2021/09/07 07:21:53;;;;;;;18.90;9.07;;;19.40;99.90;;;;;;4987540;28;20030;-70
2021/09/07 07:24:19;;;;;;;18.33;9.13;;;19.50;99.90;;;;;;5001884;28;20046;-71
2021/09/07 07:26:45;;;;;;;21.98;9.23;;;19.50;99.90;;;;;;5002009;28;20037;-71
2021/09/07 07:29:12;;;;;;;18.55;8.23;;;19.60;99.90;;;;;;5005197;28;20022;-71
2021/09/07 07:31:39;;;;;;;21.83;9.60;;;19.70;99.90;;;;;;5001699;28;20510;-71
2021/09/07 07:34:05;;;;;;;21.27;8.85;;;19.70;99.90;;;;;;4998932;28;20037;-68
2021/09/07 07:36:31;;;;;;;20.17;8.50;;;19.80;99.90;;;;;;4998369;28;20026;-72
2021/09/07 07:38:56;;;;;;;21.83;9.63;;;20.00;99.90;;;;;;4999800;28;20038;-68
2021/09/07 07:41:22;;;;;;;19.45;9.20;;;20.00;99.90;;;;;;5002304;28;20085;-69
2021/09/07 07:43:47;;;;;;;24.02;10.45;;;20.10;99.90;;;;;;5001222;28;20036;-69
2021/09/07 07:46:16;;;;;;;19.65;9.63;;;20.30;99.90;;;;;;4998991;28;20509;-68
2021/09/07 07:48:42;;;;;;;20.42;10.32;;;20.40;99.90;;;;;;4995329;28;20037;-68
2021/09/07 07:51:08;;;;;;;21.90;9.52;;;20.50;99.90;;;;;;5001273;28;20095;-69
2021/09/07 07:53:36;;;;;;;21.38;9.60;;;20.50;99.90;;;;;;5001382;28;20139;-68
2021/09/07 07:56:02;;;;;;;21.98;9.68;;;20.60;99.90;;;;;;5001822;28;20038;-68
2021/09/07 07:58:28;;;;;;;19.80;8.93;;;20.70;99.90;;;;;;5001851;28;20045;-69
2021/09/07 08:00:53;;;;;;;24.38;9.77;;;20.70;99.90;;;;;;4980095;28;20039;-69
2021/09/07 08:03:19;;;;;;;23.15;9.00;;;20.80;99.90;;;;;;5014249;28;20034;-69
2021/09/07 08:05:45;;;;;;;21.33;9.70;;;20.80;99.90;;;;;;4985864;28;20042;-69
2021/09/07 08:08:10;;;;;;;33.65;9.68;;;20.90;99.90;;;;;;4999310;28;20026;-69
2021/09/07 08:10:38;;;;;;;18.90;10.23;;;21.00;99.90;;;;;;4998047;28;20079;-69
2021/09/07 08:13:03;;;;;;;27.13;9.98;;;21.00;99.90;;;;;;4999381;28;20034;-69
2021/09/07 08:15:29;;;;;;;19.23;9.13;;;21.10;99.90;;;;;;4997494;28;20030;-69
2021/09/07 08:17:55;;;;;;;19.30;9.75;;;21.20;99.90;;;;;;5004348;28;20042;-69
2021/09/07 08:20:20;;;;;;;19.88;10.35;;;21.20;99.90;;;;;;4999071;28;20425;-69
2021/09/07 08:22:46;;;;;;;24.13;9.35;;;21.20;99.90;;;;;;5000965;28;20076;-69
2021/09/07 08:25:12;;;;;;;22.45;10.18;;;21.20;99.90;;;;;;4978771;28;20042;-69
2021/09/07 08:27:38;;;;;;;26.98;10.65;;;21.20;99.90;;;;;;4999879;28;20046;-69
2021/09/07 08:30:05;;;;;;;22.25;9.25;;;21.30;99.90;;;;;;5006355;28;20037;-69
2021/09/07 08:32:30;;;;;;;21.35;9.25;;;21.30;99.90;;;;;;5004238;28;20115;-69
2021/09/07 08:34:56;;;;;;;26.30;9.60;;;21.30;99.90;;;;;;5000477;28;20089;-69
2021/09/07 08:37:22;;;;;;;21.50;9.75;;;21.40;99.90;;;;;;5001034;28;20061;-69
2021/09/07 08:39:47;;;;;;;26.05;9.65;;;21.40;99.90;;;;;;4986988;28;20044;-69
2021/09/07 08:42:13;;;;;;;19.05;9.27;;;21.30;99.90;;;;;;4980655;28;20030;-69
2021/09/07 08:44:45;;;;;;;20.77;9.20;;;21.40;99.90;;;;;;4980239;28;20030;-70
2021/09/07 08:47:18;;;;;;;20.10;9.38;;;21.40;99.90;;;;;;4983465;28;20117;-69
2021/09/07 08:49:48;;;;;;;18.05;8.73;;;21.50;99.90;;;;;;4997847;28;20059;-69
2021/09/07 08:52:14;;;;;;;19.08;8.23;;;21.60;99.90;;;;;;5002818;28;20501;-69
2021/09/07 08:54:41;;;;;;;19.55;10.13;;;21.60;99.90;;;;;;4984877;28;20128;-69
2021/09/07 08:57:07;;;;;;;17.83;9.60;;;21.80;99.90;;;;;;4980969;28;20034;-69
2021/09/07 08:59:33;;;;;;;21.50;10.20;;;22.00;99.90;;;;;;5001450;28;20631;-69
2021/09/07 09:02:14;;;;;;;20.13;10.55;;;22.30;99.90;;;;;;5013795;28;20038;-69
2021/09/07 09:04:47;;;;;;;18.58;9.85;;;22.40;99.90;;;;;;4998703;28;20042;-69
2021/09/07 09:07:28;;;;;;;18.05;9.32;;;22.50;99.90;;;;;;4997800;28;20042;-69
2021/09/07 09:09:56;;;;;;;19.05;9.35;;;22.70;99.90;;;;;;4998609;28;20669;-69
2021/09/07 09:12:33;;;;;;;24.17;9.73;;;22.60;99.90;;;;;;5000423;28;20030;-69
2021/09/07 09:14:58;;;;;;;15.77;8.75;;;22.80;99.90;;;;;;4982706;28;20419;-69
2021/09/07 09:17:32;;;;;;;15.48;8.93;;;23.00;99.90;;;;;;4987366;28;20029;-69
2021/09/07 09:19:59;;;;;;;19.92;8.45;;;23.10;99.90;;;;;;4999564;28;20034;-69
2021/09/07 09:22:53;;;;;;;14.38;7.75;;;23.10;99.90;;;;;;4999976;28;20450;-68
2021/09/07 09:25:19;;;;;;;16.30;7.40;;;23.20;99.90;;;;;;4997813;28;20038;-69
2021/09/07 09:28:05;;;;;;;16.42;8.25;;;23.20;99.90;;;;;;4983830;28;20116;-69
2021/09/07 09:30:48;;;;;;;19.17;8.98;;;23.40;99.90;;;;;;4990264;28;20031;-69
2021/09/07 09:33:17;;;;;;;13.80;7.82;;;23.40;99.90;;;;;;5001846;28;20053;-69
2021/09/07 09:35:49;;;;;;;15.43;8.52;;;23.40;99.90;;;;;;5000897;28;20057;-68
2021/09/07 09:38:17;;;;;;;24.02;8.63;;;23.50;99.90;;;;;;5001101;28;20040;-68
2021/09/07 09:40:43;;;;;;;16.88;7.55;;;23.50;99.90;;;;;;5003690;28;20098;-68
2021/09/07 09:43:37;;;;;;;15.18;7.90;;;23.50;99.90;;;;;;4997770;28;20092;-69
2021/09/07 09:46:19;;;;;;;17.92;8.40;;;23.50;99.90;;;;;;4999479;28;20418;-69
2021/09/07 09:48:45;;;;;;;14.63;6.95;;;23.50;99.90;;;;;;4980558;28;20431;-69
2021/09/07 09:51:18;;;;;;;13.00;6.85;;;23.40;99.90;;;;;;5001191;28;20041;-69
2021/09/07 09:53:49;;;;;;;16.95;8.02;;;23.40;99.90;;;;;;4997114;28;20026;-69
2021/09/07 09:56:15;;;;;;;17.05;7.00;;;23.50;99.90;;;;;;4982427;28;20081;-69
2021/09/07 09:58:42;;;;;;;14.05;7.30;;;23.60;99.90;;;;;;4997415;28;20038;-69
2021/09/07 10:01:08;;;;;;;14.55;6.88;;;23.60;99.90;;;;;;5001373;28;20042;-69
2021/09/07 10:03:37;;;;;;;11.63;6.80;;;23.70;99.90;;;;;;4980552;28;20038;-69
2021/09/07 10:06:03;;;;;;;11.60;6.05;;;23.90;99.60;;;;;;5000032;28;20038;-69
2021/09/07 10:08:28;;;;;;;9.60;5.35;;;24.00;99.80;;;;;;4998111;28;20088;-69
2021/09/07 10:11:15;;;;;;;19.15;7.93;;;24.10;99.90;;;;;;4999229;28;20069;-69
2021/09/07 10:13:44;;;;;;;14.07;7.35;;;24.20;99.90;;;;;;4997873;28;20030;-70
2021/09/07 10:16:15;;;;;;;15.75;6.32;;;24.20;98.20;;;;;;4982933;28;20044;-69
2021/09/07 10:24:25;;;;;;;10.88;6.20;;;24.30;96.30;;;;;;4962489;28;20037;-69
2021/09/07 10:26:54;;;;;;;9.60;5.00;;;24.30;96.60;;;;;;4998233;28;20034;-69
2021/09/07 10:29:31;;;;;;;14.52;6.15;;;24.30;96.90;;;;;;4998946;28;20072;-69
2021/09/07 10:31:57;;;;;;;12.80;6.38;;;24.40;96.90;;;;;;4982064;28;20035;-70
2021/09/07 10:34:29;;;;;;;10.90;5.75;;;24.40;96.90;;;;;;4998912;28;20048;-69
2021/09/07 10:36:58;;;;;;;11.13;5.93;;;24.50;96.20;;;;;;4997921;28;20032;-69
2021/09/07 10:39:41;;;;;;;11.07;5.78;;;24.40;97.90;;;;;;5001446;28;20033;-69
2021/09/07 10:42:09;;;;;;;11.93;5.00;;;24.50;96.80;;;;;;4993414;28;20069;-69
2021/09/07 10:44:35;;;;;;;12.50;5.30;;;24.50;97.20;;;;;;4998328;28;20128;-69
2021/09/07 10:47:04;;;;;;;13.95;6.28;;;24.60;95.90;;;;;;4995932;28;20044;-71
2021/09/07 10:49:40;;;;;;;13.38;6.05;;;24.70;94.90;;;;;;4994357;28;20120;-69
2021/09/07 10:52:07;;;;;;;10.60;5.95;;;24.60;95.70;;;;;;4978983;28;20042;-69
2021/09/07 10:54:34;;;;;;;12.25;6.95;;;24.50;97.80;;;;;;4994666;28;20502;-69
2021/09/07 10:57:01;;;;;;;14.40;7.60;;;24.50;97.40;;;;;;5002802;28;20045;-70
2021/09/07 10:59:50;;;;;;;11.00;6.13;;;24.60;97.50;;;;;;5012211;28;20037;-69
2021/09/07 11:02:38;;;;;;;13.02;6.72;;;24.60;97.00;;;;;;4993790;28;20038;-69
2021/09/07 11:05:05;;;;;;;11.13;6.43;;;24.70;96.20;;;;;;4993946;28;20046;-69
2021/09/07 11:07:43;;;;;;;13.80;7.28;;;24.60;98.00;;;;;;4997926;28;20068;-69
2021/09/07 11:10:18;;;;;;;14.65;7.20;;;24.70;96.90;;;;;;4997905;28;20105;-69
2021/09/07 11:13:01;;;;;;;20.13;8.63;;;24.80;96.70;;;;;;4982509;28;20061;-69
2021/09/07 11:15:30;;;;;;;12.13;7.03;;;24.60;97.30;;;;;;4998425;28;20823;-69
2021/09/07 11:18:01;;;;;;;14.30;7.55;;;24.70;97.70;;;;;;5000936;28;20449;-69
2021/09/07 11:20:30;;;;;;;12.02;6.55;;;24.70;97.00;;;;;;4981425;28;20065;-69
2021/09/07 11:23:00;;;;;;;20.17;8.38;;;24.70;97.50;;;;;;4980260;28;20093;-69
2021/09/07 11:25:26;;;;;;;14.63;7.77;;;24.70;96.40;;;;;;5002262;28;20495;-69
2021/09/07 11:27:52;;;;;;;13.05;6.85;;;24.80;96.40;;;;;;4984390;28;20041;-69
2021/09/07 11:30:47;;;;;;;12.73;6.45;;;24.70;96.80;;;;;;5001992;28;20038;-68
2021/09/07 11:33:15;;;;;;;13.82;7.10;;;24.70;96.90;;;;;;4999935;28;20049;-69
2021/09/07 11:35:48;;;;;;;12.98;6.35;;;24.70;96.30;;;;;;5003198;28;20028;-68
2021/09/07 11:38:16;;;;;;;24.30;7.88;;;24.70;96.50;;;;;;4983800;28;20120;-69
2021/09/07 11:40:44;;;;;;;11.93;5.68;;;24.70;96.90;;;;;;5003773;28;20125;-68
2021/09/07 11:43:10;;;;;;;12.27;6.95;;;24.80;96.60;;;;;;5000933;28;20125;-68
2021/09/07 11:45:36;;;;;;;12.85;6.18;;;24.80;97.20;;;;;;4985403;28;20033;-68
2021/09/07 11:48:04;;;;;;;12.20;5.57;;;24.90;97.50;;;;;;4999067;28;20048;-68
2021/09/07 11:50:36;;;;;;;16.58;6.82;;;24.80;96.50;;;;;;5003784;28;20026;-68
2021/09/07 11:53:04;;;;;;;13.00;6.03;;;24.90;96.10;;;;;;5004670;28;20573;-69
2021/09/07 11:55:50;;;;;;;10.00;6.32;;;24.80;97.30;;;;;;5006991;28;20494;-69
2021/09/07 11:58:27;;;;;;;12.18;6.88;;;24.90;96.30;;;;;;5007538;28;20041;-73
2021/09/07 12:01:04;;;;;;;13.35;6.47;;;24.80;96.00;;;;;;4997407;28;20042;-69
2021/09/07 12:03:41;;;;;;;12.43;6.68;;;24.90;97.70;;;;;;4996529;28;20496;-69
2021/09/07 12:06:08;;;;;;;9.43;5.55;;;24.80;96.20;;;;;;4999423;28;20438;-70
2021/09/07 12:08:37;;;;;;;12.63;5.60;;;24.90;96.00;;;;;;5002208;28;20475;-69
2021/09/07 12:11:04;;;;;;;12.35;6.90;;;24.80;96.20;;;;;;4989833;28;20088;-69
2021/09/07 12:13:29;;;;;;;11.65;5.72;;;24.80;96.30;;;;;;4983682;28;20054;-69
2021/09/07 12:15:55;;;;;;;12.10;6.75;;;24.70;96.90;;;;;;5002010;28;20073;-68
2021/09/07 12:18:40;;;;;;;10.02;5.80;;;24.70;96.70;;;;;;5004150;28;20088;-70
2021/09/07 12:21:34;;;;;;;15.00;6.68;;;24.80;96.50;;;;;;5003936;28;20042;-67
2021/09/07 12:24:00;;;;;;;13.20;7.00;;;24.80;96.80;;;;;;4968605;28;20054;-69
2021/09/07 12:26:42;;;;;;;11.73;6.45;;;24.90;96.50;;;;;;5002493;28;20576;-68
2021/09/07 12:29:18;;;;;;;10.57;5.88;;;24.90;96.30;;;;;;5000628;28;20117;-69
2021/09/07 12:31:45;;;;;;;18.83;6.63;;;24.80;96.50;;;;;;5001598;28;20037;-69
2021/09/07 12:34:18;;;;;;;11.45;5.65;;;24.90;96.00;;;;;;5000774;28;20509;-69
2021/09/07 12:36:47;;;;;;;10.55;5.07;;;24.90;96.80;;;;;;4982280;28;20045;-69
2021/09/07 12:39:13;;;;;;;10.63;5.15;;;24.90;96.10;;;;;;5002248;28;20117;-69
2021/09/07 12:41:39;;;;;;;10.68;4.50;;;24.90;95.90;;;;;;5005327;28;20042;-69
2021/09/07 12:44:05;;;;;;;12.50;5.60;;;24.80;96.40;;;;;;4998391;28;20113;-69